Terminal Aerodrome Forecast
Issued by NWS Charleston, WV

Current Version | Previous Version | Text Only | Print | Product List | Glossary Off
Versions: 1 2 3 4 5 6 7 8 9 10 11 12 13 14 15 16 17 18 19 20 21

000
FTUS41 KRLX 261740
TAFBKW
TAF
KBKW 261740Z 2618/2718 25008G18KT P6SM BKN040
     FM262200 27011G19KT 5SM SHRA VCTS BKN045CB
     FM270000 28006KT 4SM TSRA BR BKN030CB
     FM270400 26005KT 4SM SHRA BKN024
     FM270900 VRB03KT 2SM -SHRA BR BKN015
     FM271300 25005KT 4SM BR BKN020=

USA.gov is the U.S. government's official web portal to all federal, state and local government web resources and services.